createdAt,value
2022-10-26T00:01:53.612Z,66.69
2022-10-26T00:04:29.932Z,66.87
2022-10-26T00:06:58.088Z,67.08
2022-10-26T00:09:28.425Z,67.09
2022-10-26T00:11:57.002Z,67.30
2022-10-26T00:14:28.841Z,67.28
2022-10-26T00:16:58.558Z,67.33
2022-10-26T00:19:29.708Z,67.14
2022-10-26T00:21:57.822Z,67.09
2022-10-26T00:24:28.211Z,67.09
2022-10-26T00:26:58.679Z,66.78
2022-10-26T00:29:26.696Z,66.67
2022-10-26T00:32:02.968Z,66.48
2022-10-26T00:34:30.981Z,66.15
2022-10-26T00:36:58.897Z,65.99
2022-10-26T00:39:29.959Z,65.95
2022-10-26T00:41:57.935Z,65.87
2022-10-26T00:45:04.141Z,65.53
2022-10-26T00:47:39.585Z,65.61
2022-10-26T00:50:11.854Z,65.32
2022-10-26T00:52:48.193Z,65.17
2022-10-26T00:55:21.290Z,64.92
2022-10-26T00:57:49.445Z,64.79
2022-10-26T01:00:20.064Z,64.73
2022-10-26T01:02:50.755Z,64.56
2022-10-26T01:05:19.262Z,64.30
2022-10-26T01:07:50.668Z,64.55
2022-10-26T01:10:20.486Z,64.14
2022-10-26T01:12:48.602Z,64.09
2022-10-26T01:15:16.893Z,63.95
2022-10-26T01:17:56.314Z,64.00
2022-10-26T01:21:13.414Z,63.77
2022-10-26T01:23:50.247Z,63.74
2022-10-26T01:27:03.876Z,63.23
2022-10-26T01:30:21.031Z,63.48
2022-10-26T01:33:38.022Z,63.14
2022-10-26T01:36:17.967Z,63.34
2022-10-26T01:38:53.197Z,63.38
2022-10-26T01:41:37.083Z,63.27
2022-10-26T01:44:10.915Z,63.31
2022-10-26T01:46:42.276Z,63.33
2022-10-26T01:49:14.194Z,63.13
2022-10-26T01:51:51.412Z,63.13
2022-10-26T01:54:20.735Z,62.96
2022-10-26T01:56:50.528Z,62.96
2022-10-26T01:59:27.843Z,62.88
2022-10-26T02:02:29.268Z,62.82
2022-10-26T02:05:36.994Z,62.65
2022-10-26T02:08:17.611Z,62.68
2022-10-26T02:10:52.125Z,62.79
2022-10-26T02:13:23.285Z,62.74
2022-10-26T02:15:58.341Z,62.78
2022-10-26T02:18:31.143Z,62.71
2022-10-26T02:21:00.876Z,62.71
2022-10-26T02:23:42.671Z,62.41
2022-10-26T02:26:11.915Z,62.66
2022-10-26T02:28:42.740Z,62.63
2022-10-26T02:31:10.808Z,63.01
2022-10-26T02:33:40.202Z,62.61
2022-10-26T02:36:10.301Z,62.60
2022-10-26T02:38:41.800Z,62.51
2022-10-26T02:41:10.150Z,62.72
2022-10-26T02:43:43.105Z,62.63
2022-10-26T02:46:14.134Z,62.65
2022-10-26T02:48:42.135Z,62.57
2022-10-26T02:51:12.221Z,62.40
2022-10-26T02:54:04.306Z,62.53
2022-10-26T02:56:36.982Z,62.53
2022-10-26T02:59:08.658Z,62.19
2022-10-26T03:04:38.722Z,62.10
2022-10-26T03:07:13.705Z,62.20
2022-10-26T03:09:45.897Z,62.12
2022-10-26T03:12:13.931Z,62.06
2022-10-26T03:14:43.180Z,62.12
2022-10-26T03:17:13.709Z,62.21
2022-10-26T03:19:43.114Z,62.38
2022-10-26T03:22:11.044Z,62.33
2022-10-26T03:24:39.607Z,62.16
2022-10-26T03:27:09.550Z,62.07
2022-10-26T03:29:43.083Z,62.29
2022-10-26T03:32:11.140Z,62.14
2022-10-26T03:34:42.677Z,62.41
2022-10-26T03:37:10.702Z,62.35
2022-10-26T03:39:38.654Z,62.25
2022-10-26T03:42:10.521Z,62.28
2022-10-26T03:44:38.690Z,62.52
2022-10-26T03:47:07.666Z,62.37
2022-10-26T03:49:35.974Z,62.39
2022-10-26T03:52:04.069Z,62.56
2022-10-26T03:54:33.270Z,62.63
2022-10-26T03:57:01.414Z,62.47
2022-10-26T03:59:35.914Z,62.60
2022-10-26T04:02:12.043Z,62.60
2022-10-26T04:04:40.201Z,62.58
2022-10-26T04:07:08.262Z,62.51
2022-10-26T04:09:38.487Z,62.48
2022-10-26T04:12:09.953Z,62.62
2022-10-26T04:14:39.589Z,62.73
2022-10-26T04:17:08.966Z,62.76
2022-10-26T04:19:39.631Z,62.86
2022-10-26T04:22:09.880Z,62.98
2022-10-26T04:24:37.915Z,63.15
2022-10-26T04:27:05.917Z,63.17
2022-10-26T04:29:33.954Z,63.17
2022-10-26T04:32:03.389Z,63.18
2022-10-26T04:34:35.366Z,63.06
2022-10-26T04:37:11.090Z,63.32
2022-10-26T04:42:31.608Z,63.42
2022-10-26T04:47:50.480Z,63.27
2022-10-26T04:50:21.881Z,63.41
2022-10-26T04:52:52.144Z,63.24
2022-10-26T04:55:20.329Z,63.44
2022-10-26T04:57:51.336Z,63.28
2022-10-26T05:00:21.703Z,63.29
2022-10-26T05:06:04.976Z,63.67
2022-10-26T05:08:41.345Z,63.71
2022-10-26T05:11:12.769Z,63.53
2022-10-26T05:13:46.163Z,63.72
2022-10-26T05:16:16.297Z,63.53
2022-10-26T05:19:02.592Z,63.42
2022-10-26T05:21:32.027Z,63.65
2022-10-26T05:24:27.982Z,63.30
2022-10-26T05:28:00.552Z,63.46
2022-10-26T05:30:42.775Z,63.57
2022-10-26T05:33:42.065Z,63.23
2022-10-26T05:36:12.051Z,63.37
2022-10-26T05:38:44.712Z,63.21
2022-10-26T05:41:12.655Z,63.10
2022-10-26T05:43:43.678Z,63.05
2022-10-26T05:46:14.741Z,62.99
2022-10-26T05:48:45.082Z,62.91
2022-10-26T05:51:14.486Z,62.63
2022-10-26T05:53:46.041Z,62.66
2022-10-26T05:56:18.484Z,62.34
2022-10-26T05:58:47.233Z,62.21
2022-10-26T06:01:21.192Z,62.18
2022-10-26T06:04:07.123Z,62.00
2022-10-26T06:06:48.546Z,61.92
2022-10-26T06:09:18.719Z,61.79
2022-10-26T06:11:52.271Z,61.54
2022-10-26T06:14:24.539Z,61.25
2022-10-26T06:17:03.477Z,61.12
2022-10-26T06:19:38.924Z,61.04
2022-10-26T06:22:23.167Z,60.89
2022-10-26T06:24:56.513Z,60.79
2022-10-26T06:27:29.132Z,60.74
2022-10-26T06:30:06.930Z,60.73
2022-10-26T06:32:36.376Z,60.72
2022-10-26T06:35:16.513Z,60.80
2022-10-26T06:37:51.487Z,60.79
2022-10-26T06:40:20.632Z,60.70
2022-10-26T06:42:49.618Z,60.79
2022-10-26T06:45:18.738Z,60.92
2022-10-26T06:47:52.775Z,60.97
2022-10-26T06:50:40.372Z,60.97
2022-10-26T06:53:19.075Z,60.85
2022-10-26T06:55:49.976Z,60.76
2022-10-26T06:58:21.600Z,60.93
2022-10-26T07:00:51.499Z,61.05
2022-10-26T07:03:21.121Z,61.09
2022-10-26T07:05:50.899Z,61.04
2022-10-26T07:08:22.273Z,61.21
2022-10-26T07:10:59.401Z,61.04
2022-10-26T07:13:33.417Z,61.18
2022-10-26T07:16:01.564Z,61.03
2022-10-26T07:18:29.572Z,61.32
2022-10-26T07:21:05.253Z,61.20
2022-10-26T07:23:37.431Z,60.78
2022-10-26T07:26:06.678Z,60.79
2022-10-26T07:28:40.467Z,60.62
2022-10-26T07:31:16.638Z,60.38
2022-10-26T07:33:47.708Z,60.64
2022-10-26T07:36:18.038Z,60.48
2022-10-26T07:38:47.622Z,60.69
2022-10-26T07:41:15.787Z,60.84
2022-10-26T07:43:55.474Z,60.96
2022-10-26T07:46:31.346Z,60.98
2022-10-26T07:49:09.543Z,60.87
2022-10-26T07:51:37.712Z,60.75
2022-10-26T07:54:07.934Z,60.71
2022-10-26T07:56:35.955Z,60.58
2022-10-26T07:59:05.188Z,60.55
2022-10-26T08:01:41.426Z,60.42
2022-10-26T08:04:10.280Z,60.37
2022-10-26T08:06:38.377Z,60.25
2022-10-26T08:09:08.428Z,60.15
2022-10-26T08:11:39.409Z,60.32
2022-10-26T08:14:07.687Z,60.00
2022-10-26T08:16:35.936Z,59.87
2022-10-26T08:19:14.667Z,60.09
2022-10-26T08:21:42.785Z,59.91
2022-10-26T08:24:18.847Z,59.90
2022-10-26T08:26:49.676Z,59.86
2022-10-26T08:29:17.985Z,59.88
2022-10-26T08:31:46.141Z,59.84
2022-10-26T08:34:20.181Z,59.94
2022-10-26T08:37:01.520Z,59.57
2022-10-26T08:39:38.330Z,59.45
2022-10-26T08:42:08.553Z,59.32
2022-10-26T08:44:40.585Z,59.17
2022-10-26T08:47:11.942Z,59.19
2022-10-26T08:49:43.227Z,59.12
2022-10-26T08:52:14.069Z,59.18
2022-10-26T08:58:19.396Z,58.58
2022-10-26T09:01:18.540Z,58.19
2022-10-26T09:03:56.633Z,58.09
2022-10-26T09:06:27.675Z,57.98
2022-10-26T09:09:04.325Z,57.57
2022-10-26T09:11:42.082Z,57.22
2022-10-26T09:14:23.279Z,57.19
2022-10-26T09:17:01.692Z,57.20
2022-10-26T09:20:07.910Z,56.78
2022-10-26T09:22:42.797Z,56.73
2022-10-26T09:25:17.559Z,56.57
2022-10-26T09:27:49.130Z,56.01
2022-10-26T09:30:23.013Z,56.02
2022-10-26T09:32:56.153Z,55.91
2022-10-26T09:38:00.755Z,54.63
2022-10-26T09:40:31.329Z,54.55
2022-10-26T09:43:02.135Z,53.84
2022-10-26T09:45:36.035Z,54.14
2022-10-26T09:48:21.103Z,53.86
2022-10-26T09:51:06.146Z,53.61
2022-10-26T09:53:37.120Z,53.53
2022-10-26T09:56:07.234Z,53.38
2022-10-26T09:59:03.489Z,53.21
2022-10-26T10:01:36.922Z,52.39
2022-10-26T10:04:26.087Z,52.84
2022-10-26T10:07:20.976Z,52.39
2022-10-26T10:10:09.285Z,52.04
2022-10-26T10:12:38.375Z,51.85
2022-10-26T10:15:07.285Z,51.76
2022-10-26T10:17:36.901Z,51.65
2022-10-26T10:20:13.493Z,51.14
2022-10-26T10:22:57.735Z,51.21
2022-10-26T10:25:35.862Z,50.67
2022-10-26T10:28:04.312Z,50.30
2022-10-26T10:30:37.594Z,50.42
2022-10-26T10:33:09.158Z,50.16
2022-10-26T10:35:37.380Z,49.90
2022-10-26T10:38:08.813Z,50.34
2022-10-26T10:40:42.193Z,49.52
2022-10-26T10:43:42.786Z,49.76
2022-10-26T10:46:10.847Z,50.16
2022-10-26T10:48:40.835Z,50.74
2022-10-26T10:51:20.127Z,50.17
2022-10-26T10:53:57.182Z,49.50
2022-10-26T10:56:36.695Z,49.20
2022-10-26T10:59:34.909Z,49.14
2022-10-26T11:02:49.485Z,49.46
2022-10-26T11:05:51.887Z,49.13
2022-10-26T11:08:22.062Z,49.22
2022-10-26T11:11:00.510Z,49.43
2022-10-26T11:13:41.973Z,49.74
2022-10-26T11:16:14.187Z,50.27
2022-10-26T11:18:44.340Z,50.25
2022-10-26T11:21:28.415Z,50.75
2022-10-26T11:24:17.599Z,50.50
2022-10-26T11:26:57.624Z,50.21
2022-10-26T11:29:38.371Z,49.87
2022-10-26T11:32:17.576Z,48.23
2022-10-26T11:35:07.372Z,47.66
2022-10-26T11:43:22.858Z,47.87
2022-10-26T11:46:01.330Z,47.92
2022-10-26T11:48:34.197Z,48.25
2022-10-26T11:51:05.144Z,48.18
2022-10-26T11:54:06.300Z,48.36
2022-10-26T11:56:47.833Z,47.41
2022-10-26T11:59:22.084Z,47.51
2022-10-26T12:01:51.608Z,47.43
2022-10-26T12:04:20.722Z,47.38
2022-10-26T12:06:48.784Z,47.28
2022-10-26T12:09:21.663Z,47.13
2022-10-26T12:12:12.314Z,47.18
2022-10-26T12:14:43.361Z,47.29
2022-10-26T12:17:15.630Z,46.63
2022-10-26T12:19:50.128Z,45.90
2022-10-26T12:22:19.457Z,45.55
2022-10-26T12:25:25.335Z,45.90
2022-10-26T12:27:56.904Z,45.69
2022-10-26T12:30:28.046Z,45.88
2022-10-26T12:32:58.509Z,45.77
2022-10-26T12:35:50.645Z,45.66
2022-10-26T12:39:05.204Z,46.07
2022-10-26T12:41:39.517Z,46.33
2022-10-26T12:44:36.374Z,46.24
2022-10-26T12:47:07.464Z,46.07
2022-10-26T12:50:05.680Z,46.47
2022-10-26T12:52:55.938Z,46.35
2022-10-26T12:59:30.429Z,46.34
2022-10-26T13:02:10.563Z,46.39
2022-10-26T13:05:35.983Z,46.29
2022-10-26T13:08:04.769Z,46.42
2022-10-26T13:15:07.965Z,46.41
2022-10-26T13:21:08.730Z,46.49
2022-10-26T13:28:29.348Z,46.76
2022-10-26T13:35:32.391Z,45.77
2022-10-26T13:38:20.884Z,46.00
2022-10-26T13:44:27.440Z,45.57
2022-10-26T13:47:13.194Z,45.82
2022-10-26T13:49:56.890Z,45.39
2022-10-26T13:52:58.643Z,45.76
2022-10-26T13:56:06.937Z,46.12
2022-10-26T14:02:05.532Z,45.82
2022-10-26T14:05:08.221Z,46.15
2022-10-26T14:07:54.053Z,45.95
2022-10-26T14:10:40.038Z,46.44
2022-10-26T14:13:12.897Z,46.83
2022-10-26T14:15:57.304Z,47.47
2022-10-26T14:18:36.000Z,47.72
2022-10-26T14:21:08.748Z,47.49
2022-10-26T14:23:38.380Z,47.43
2022-10-26T14:26:09.448Z,47.93
2022-10-26T14:28:42.875Z,47.95
2022-10-26T14:31:28.921Z,48.50
2022-10-26T14:34:02.882Z,48.55
2022-10-26T14:36:49.994Z,47.69
2022-10-26T14:39:23.635Z,47.34
2022-10-26T14:41:52.289Z,46.90
2022-10-26T14:44:35.782Z,46.23
2022-10-26T14:47:05.195Z,45.70
2022-10-26T14:49:33.701Z,45.89
2022-10-26T14:52:31.170Z,45.94
2022-10-26T14:55:06.175Z,45.73
2022-10-26T14:57:56.900Z,45.92
2022-10-26T15:00:30.748Z,46.20
2022-10-26T15:03:36.724Z,46.05
2022-10-26T15:06:46.043Z,46.08
2022-10-26T15:09:48.182Z,46.74
2022-10-26T15:16:18.692Z,46.80
2022-10-26T15:23:01.097Z,46.38
2022-10-26T15:29:36.556Z,47.13
2022-10-26T15:32:32.996Z,47.35
2022-10-26T15:35:35.904Z,47.73
2022-10-26T15:38:07.385Z,48.20
2022-10-26T15:40:41.491Z,48.74
2022-10-26T15:43:14.125Z,49.32
2022-10-26T15:45:49.605Z,49.63
2022-10-26T15:48:42.740Z,49.88
2022-10-26T15:51:13.758Z,50.13
2022-10-26T15:53:44.222Z,50.71
2022-10-26T15:56:17.000Z,51.02
2022-10-26T15:58:46.914Z,51.35
2022-10-26T16:01:24.751Z,51.33
2022-10-26T16:03:55.860Z,51.32
2022-10-26T16:06:27.408Z,51.76
2022-10-26T16:09:00.410Z,52.24
2022-10-26T16:11:28.607Z,52.00
2022-10-26T16:14:03.586Z,52.03
2022-10-26T16:16:32.207Z,52.44
2022-10-26T16:21:52.044Z,52.30
2022-10-26T16:24:20.495Z,52.62
2022-10-26T16:26:49.833Z,52.69
2022-10-26T16:29:19.519Z,52.76
2022-10-26T16:31:47.572Z,52.56
2022-10-26T16:34:15.675Z,53.01
2022-10-26T16:36:53.511Z,53.04
2022-10-26T16:39:21.728Z,52.96
2022-10-26T16:41:54.643Z,52.84
2022-10-26T16:44:40.770Z,53.14
2022-10-26T16:47:12.117Z,53.21
2022-10-26T16:49:47.000Z,52.99
2022-10-26T16:52:24.283Z,53.16
2022-10-26T16:55:06.540Z,53.44
2022-10-26T16:57:37.110Z,53.59
2022-10-26T17:00:13.712Z,53.98
2022-10-26T17:02:41.908Z,54.11
2022-10-26T17:05:11.260Z,54.19
2022-10-26T17:07:43.512Z,54.45
2022-10-26T17:10:15.086Z,54.45
2022-10-26T17:12:43.471Z,54.35
2022-10-26T17:18:00.467Z,54.59
2022-10-26T17:23:21.473Z,55.05
2022-10-26T17:25:50.739Z,54.95
2022-10-26T17:28:24.826Z,55.36
2022-10-26T17:31:05.028Z,55.32
2022-10-26T17:33:34.722Z,55.44
2022-10-26T17:36:09.244Z,55.35
2022-10-26T17:38:38.422Z,55.50
2022-10-26T17:41:16.642Z,55.68
2022-10-26T17:43:48.993Z,55.65
2022-10-26T17:49:09.978Z,56.08
2022-10-26T17:51:45.819Z,56.07
2022-10-26T17:57:38.231Z,56.12
2022-10-26T18:00:10.721Z,56.38
2022-10-26T18:03:09.111Z,56.27
2022-10-26T18:05:44.712Z,56.11
2022-10-26T18:08:15.710Z,56.16
2022-10-26T18:10:51.732Z,56.06
2022-10-26T18:13:25.858Z,56.26
2022-10-26T18:16:04.864Z,56.11
2022-10-26T18:18:37.597Z,56.28
2022-10-26T18:21:40.074Z,56.25
2022-10-26T18:24:37.462Z,56.28
2022-10-26T18:32:01.198Z,56.33
2022-10-26T18:34:45.826Z,56.54
2022-10-26T18:37:32.362Z,56.75
2022-10-26T18:40:00.549Z,56.62
2022-10-26T18:42:35.852Z,56.61
2022-10-26T18:45:07.686Z,56.58
2022-10-26T18:47:35.865Z,56.55
2022-10-26T18:51:02.022Z,56.73
2022-10-26T18:53:35.876Z,56.34
2022-10-26T18:59:14.375Z,56.58
2022-10-26T19:01:42.936Z,56.73
2022-10-26T19:04:48.038Z,57.00
2022-10-26T19:07:17.572Z,56.81
2022-10-26T19:09:56.093Z,57.00
2022-10-26T19:12:34.757Z,57.11
2022-10-26T19:15:12.101Z,56.99
2022-10-26T19:17:40.235Z,57.31
2022-10-26T19:20:12.852Z,57.32
2022-10-26T19:22:41.001Z,57.32
2022-10-26T19:25:20.319Z,57.65
2022-10-26T19:27:48.813Z,57.60
2022-10-26T19:30:19.624Z,57.47
2022-10-26T19:32:50.256Z,57.80
2022-10-26T19:38:01.115Z,57.85
2022-10-26T19:40:36.925Z,57.91
2022-10-26T19:43:09.783Z,58.04
2022-10-26T19:45:38.749Z,58.06
2022-10-26T19:48:10.150Z,58.09
2022-10-26T19:50:38.215Z,58.20
2022-10-26T19:53:18.401Z,58.18
2022-10-26T19:55:51.075Z,58.25
2022-10-26T19:58:19.812Z,58.12
2022-10-26T20:00:49.384Z,58.30
2022-10-26T20:03:19.233Z,58.32
2022-10-26T20:05:48.839Z,58.39
2022-10-26T20:08:19.315Z,58.26
2022-10-26T20:10:50.606Z,58.46
2022-10-26T20:13:26.968Z,58.20
2022-10-26T20:15:56.045Z,58.56
2022-10-26T20:18:24.101Z,58.56
2022-10-26T20:20:56.737Z,58.56
2022-10-26T20:23:28.695Z,58.56
2022-10-26T20:26:07.347Z,58.61
2022-10-26T20:28:44.823Z,58.62
2022-10-26T20:31:15.872Z,58.84
2022-10-26T20:33:53.531Z,59.04
2022-10-26T20:36:27.949Z,58.89
2022-10-26T20:38:56.431Z,58.81
2022-10-26T20:41:29.731Z,58.80
2022-10-26T20:43:58.345Z,58.71
2022-10-26T20:46:49.427Z,58.78
2022-10-26T20:49:20.965Z,58.73
2022-10-26T20:52:18.927Z,58.92
2022-10-26T20:54:45.615Z,58.92
2022-10-26T20:57:15.949Z,59.10
2022-10-26T21:00:14.643Z,59.15
2022-10-26T21:02:43.700Z,59.04
2022-10-26T21:05:12.303Z,59.05
2022-10-26T21:10:33.966Z,59.26
2022-10-26T21:13:15.445Z,59.33
2022-10-26T21:15:52.876Z,59.27
2022-10-26T21:18:28.396Z,59.61
2022-10-26T21:21:50.177Z,59.52
2022-10-26T21:24:18.371Z,59.51
2022-10-26T21:27:18.170Z,59.41
2022-10-26T21:29:52.318Z,59.35
2022-10-26T21:32:20.596Z,59.58
2022-10-26T21:35:02.396Z,59.46
2022-10-26T21:37:48.380Z,59.44
2022-10-26T21:40:16.940Z,59.39
2022-10-26T21:42:55.135Z,59.51
2022-10-26T21:45:28.481Z,59.55
2022-10-26T21:48:21.818Z,59.80
2022-10-26T21:50:54.436Z,59.67
2022-10-26T21:53:24.397Z,59.64
2022-10-26T21:56:07.178Z,59.65
2022-10-26T21:58:43.093Z,59.57
2022-10-26T22:01:34.487Z,59.61
2022-10-26T22:04:05.536Z,59.56
2022-10-26T22:06:35.357Z,59.49
2022-10-26T22:10:07.641Z,59.43
2022-10-26T22:12:38.817Z,59.38
2022-10-26T22:15:34.924Z,59.48
2022-10-26T22:18:42.812Z,59.32
2022-10-26T22:21:35.103Z,59.33
2022-10-26T22:24:19.367Z,59.42
2022-10-26T22:26:47.907Z,59.28
2022-10-26T22:29:15.969Z,59.32
2022-10-26T22:31:51.739Z,59.28
2022-10-26T22:34:38.525Z,59.12
2022-10-26T22:37:12.691Z,59.24
2022-10-26T22:39:41.231Z,59.28
2022-10-26T22:42:10.382Z,59.33
2022-10-26T22:44:40.415Z,59.32
2022-10-26T22:47:09.535Z,59.20
2022-10-26T22:49:40.802Z,59.07
2022-10-26T22:52:10.485Z,58.98
2022-10-26T22:54:43.472Z,58.81
2022-10-26T22:57:15.479Z,58.99
2022-10-26T22:59:53.311Z,58.91
2022-10-26T23:02:21.421Z,58.84
2022-10-26T23:04:50.429Z,58.91
2022-10-26T23:07:37.765Z,59.03
2022-10-26T23:10:33.071Z,58.96
2022-10-26T23:13:01.189Z,59.00
2022-10-26T23:18:27.872Z,59.11
2022-10-26T23:21:09.843Z,58.99
2022-10-26T23:23:39.351Z,59.06
2022-10-26T23:26:14.118Z,59.04
2022-10-26T23:28:42.672Z,59.20
2022-10-26T23:31:24.380Z,59.25
2022-10-26T23:36:53.360Z,59.40
2022-10-26T23:39:31.785Z,59.50
2022-10-26T23:42:16.766Z,59.44
2022-10-26T23:44:49.955Z,59.58
2022-10-26T23:47:18.746Z,59.64
2022-10-26T23:49:49.338Z,59.66
2022-10-26T23:52:34.900Z,59.78
2022-10-26T23:55:12.294Z,59.78
2022-10-26T23:57:42.816Z,59.74
